createdAt,value
2023-05-21T00:02:25.496Z,99924.13
2023-05-21T00:04:56.042Z,99933.47
2023-05-21T00:07:26.990Z,99936.88
2023-05-21T00:09:57.392Z,99939.72
2023-05-21T00:12:28.079Z,99919.09
2023-05-21T00:14:58.517Z,99930.00
2023-05-21T00:17:30.008Z,99930.94
2023-05-21T00:20:01.564Z,99921.88
2023-05-21T00:22:32.322Z,99930.84
2023-05-21T00:25:02.731Z,99924.06
2023-05-21T00:27:33.158Z,99919.75
2023-05-21T00:30:03.577Z,99911.50
2023-05-21T00:32:34.061Z,99903.84
2023-05-21T00:35:04.661Z,99901.19
2023-05-21T00:37:35.912Z,99897.28
2023-05-21T00:40:24.815Z,99918.44
2023-05-21T00:42:58.728Z,99954.13
2023-05-21T00:45:49.064Z,99955.41
2023-05-21T00:48:19.520Z,99948.22
2023-05-21T00:50:51.042Z,99944.38
2023-05-21T00:53:22.292Z,99927.31
2023-05-21T00:55:53.614Z,99929.97
2023-05-21T00:58:24.499Z,99938.53
2023-05-21T01:00:58.472Z,99946.06
2023-05-21T01:03:28.985Z,99948.09
2023-05-21T01:06:01.470Z,99955.09
2023-05-21T01:08:31.474Z,99952.50
2023-05-21T01:11:03.353Z,99965.41
2023-05-21T01:13:35.073Z,99956.94
2023-05-21T01:16:08.132Z,99938.16
2023-05-21T01:18:45.024Z,99962.31
2023-05-21T01:21:18.793Z,99951.91
2023-05-21T01:23:49.433Z,99955.66
2023-05-21T01:26:20.053Z,99966.53
2023-05-21T01:28:50.557Z,99961.91
2023-05-21T01:31:44.479Z,99977.19
2023-05-21T01:34:17.099Z,99968.59
2023-05-21T01:37:17.505Z,99961.97
2023-05-21T01:40:02.080Z,99960.31
2023-05-21T01:42:35.973Z,99937.56
2023-05-21T01:45:08.609Z,99937.38
2023-05-21T01:47:41.447Z,99930.63
2023-05-21T01:50:12.958Z,99917.19
2023-05-21T01:53:00.146Z,99929.63
2023-05-21T01:55:32.238Z,99921.13
2023-05-21T01:58:02.988Z,99925.03
2023-05-21T02:00:34.171Z,99921.31
2023-05-21T02:03:04.671Z,99914.53
2023-05-21T02:05:35.292Z,99920.38
2023-05-21T02:08:06.995Z,99917.69
2023-05-21T02:10:38.421Z,99928.78
2023-05-21T02:13:09.131Z,99935.19
2023-05-21T02:15:41.810Z,99923.59
2023-05-21T02:18:12.896Z,99931.19
2023-05-21T02:20:45.283Z,99924.69
2023-05-21T02:23:15.824Z,99941.19
2023-05-21T02:25:46.200Z,99934.56
2023-05-21T02:28:17.421Z,99933.91
2023-05-21T02:30:47.949Z,99922.66
2023-05-21T02:33:18.931Z,99913.97
2023-05-21T02:35:50.299Z,99922.94
2023-05-21T02:38:24.756Z,99908.28
2023-05-21T02:40:55.474Z,99910.00
2023-05-21T02:43:26.662Z,99923.31
2023-05-21T02:45:57.322Z,99922.84
2023-05-21T02:48:29.211Z,99910.63
2023-05-21T02:51:00.202Z,99912.84
2023-05-21T02:53:30.742Z,99909.91
2023-05-21T02:56:01.181Z,99892.69
2023-05-21T02:58:31.609Z,99899.56
2023-05-21T03:01:02.104Z,99894.53
2023-05-21T03:03:33.943Z,99891.44
2023-05-21T03:06:05.629Z,99898.91
2023-05-21T03:08:36.019Z,99896.22
2023-05-21T03:11:06.622Z,99872.97
2023-05-21T03:13:37.120Z,99874.28
2023-05-21T03:16:07.952Z,99868.00
2023-05-21T03:18:38.420Z,99885.38
2023-05-21T03:21:08.842Z,99865.75
2023-05-21T03:23:39.550Z,99880.25
2023-05-21T03:26:10.653Z,99878.94
2023-05-21T03:28:41.096Z,99886.22
2023-05-21T03:31:12.029Z,99876.25
2023-05-21T03:33:54.226Z,99879.78
2023-05-21T03:36:27.706Z,99874.81
2023-05-21T03:38:59.620Z,99873.41
2023-05-21T03:41:29.928Z,99887.88
2023-05-21T03:44:08.345Z,99881.25
2023-05-21T03:46:59.056Z,99890.63
2023-05-21T03:49:32.412Z,99890.88
2023-05-21T03:52:02.979Z,99873.78
2023-05-21T03:54:33.517Z,99885.88
2023-05-21T03:57:08.309Z,99883.50
2023-05-21T03:59:38.889Z,99877.91
2023-05-21T04:02:09.582Z,99885.78
2023-05-21T04:04:40.262Z,99874.66
2023-05-21T04:07:15.915Z,99861.22
2023-05-21T04:09:46.368Z,99881.84
2023-05-21T04:12:17.002Z,99887.00
2023-05-21T04:14:48.120Z,99883.41
2023-05-21T04:17:18.653Z,99878.22
2023-05-21T04:19:49.284Z,99874.81
2023-05-21T04:22:19.760Z,99874.31
2023-05-21T04:24:52.016Z,99865.72
2023-05-21T04:27:27.914Z,99860.41
2023-05-21T04:29:59.560Z,99874.84
2023-05-21T04:32:32.455Z,99866.16
2023-05-21T04:35:03.603Z,99872.34
2023-05-21T04:37:36.572Z,99880.09
2023-05-21T04:40:08.350Z,99879.53
2023-05-21T04:42:38.681Z,99866.38
2023-05-21T04:45:10.322Z,99873.13
2023-05-21T04:47:42.911Z,99868.09
2023-05-21T04:50:13.702Z,99867.16
2023-05-21T04:52:44.689Z,99870.50
2023-05-21T04:55:15.216Z,99867.22
2023-05-21T04:57:45.605Z,99861.09
2023-05-21T05:00:16.329Z,99865.38
2023-05-21T05:02:47.866Z,99861.06
2023-05-21T05:05:18.646Z,99862.66
2023-05-21T05:07:49.685Z,99864.47
2023-05-21T05:10:20.522Z,99866.44
2023-05-21T05:12:51.762Z,99869.78
2023-05-21T05:15:22.386Z,99861.28
2023-05-21T05:17:53.144Z,99862.69
2023-05-21T05:20:23.856Z,99863.25
2023-05-21T05:22:54.491Z,99851.78
2023-05-21T05:25:25.271Z,99849.22
2023-05-21T05:27:55.791Z,99860.75
2023-05-21T05:30:26.245Z,99859.72
2023-05-21T05:33:00.325Z,99862.09
2023-05-21T05:35:30.793Z,99876.25
2023-05-21T05:38:01.242Z,99877.66
2023-05-21T05:40:31.710Z,99871.84
2023-05-21T05:43:02.140Z,99865.13
2023-05-21T05:45:32.674Z,99851.91
2023-05-21T05:48:04.327Z,99863.63
2023-05-21T05:50:35.027Z,99875.31
2023-05-21T05:53:05.556Z,99865.13
2023-05-21T05:55:36.306Z,99856.34
2023-05-21T05:58:07.124Z,99866.47
2023-05-21T06:00:50.063Z,99871.66
2023-05-21T06:03:20.733Z,99873.50
2023-05-21T06:05:55.455Z,99868.84
2023-05-21T06:08:26.938Z,99865.31
2023-05-21T06:10:57.772Z,99869.13
2023-05-21T06:13:28.227Z,99863.31
2023-05-21T06:15:59.296Z,99866.06
2023-05-21T06:18:29.837Z,99863.25
2023-05-21T06:21:00.348Z,99862.09
2023-05-21T06:23:33.663Z,99861.41
2023-05-21T06:26:04.457Z,99858.66
2023-05-21T06:28:35.264Z,99855.91
2023-05-21T06:31:06.113Z,99850.91
2023-05-21T06:33:54.879Z,99852.53
2023-05-21T06:36:27.699Z,99852.63
2023-05-21T06:39:01.322Z,99846.97
2023-05-21T06:41:31.858Z,99848.06
2023-05-21T06:44:06.933Z,99859.59
2023-05-21T06:47:05.151Z,99852.41
2023-05-21T06:49:35.763Z,99854.59
2023-05-21T06:52:06.524Z,99841.53
2023-05-21T06:54:37.104Z,99842.06
2023-05-21T06:57:08.182Z,99837.91
2023-05-21T06:59:38.857Z,99834.88
2023-05-21T07:02:09.383Z,99845.16
2023-05-21T07:04:39.950Z,99838.19
2023-05-21T07:07:10.403Z,99849.28
2023-05-21T07:09:40.745Z,99847.44
2023-05-21T07:12:11.850Z,99841.69
2023-05-21T07:14:42.405Z,99847.50
2023-05-21T07:17:12.935Z,99841.88
2023-05-21T07:19:43.435Z,99828.75
2023-05-21T07:22:14.191Z,99826.63
2023-05-21T07:24:45.049Z,99822.00
2023-05-21T07:27:25.206Z,99831.66
2023-05-21T07:29:57.368Z,99831.88
2023-05-21T07:32:46.229Z,99843.03
2023-05-21T07:35:17.100Z,99834.53
2023-05-21T07:37:48.303Z,99829.34
2023-05-21T07:40:18.946Z,99837.66
2023-05-21T07:42:49.616Z,99832.75
2023-05-21T07:45:22.367Z,99842.19
2023-05-21T07:47:53.088Z,99844.06
2023-05-21T07:50:23.937Z,99842.66
2023-05-21T07:52:54.601Z,99840.56
2023-05-21T07:55:25.290Z,99835.75
2023-05-21T07:57:55.970Z,99844.97
2023-05-21T08:00:44.489Z,99845.63
2023-05-21T08:03:20.789Z,99845.03
2023-05-21T08:05:52.689Z,99839.78
2023-05-21T08:08:26.231Z,99841.94
2023-05-21T08:10:59.222Z,99838.41
2023-05-21T08:13:30.852Z,99833.50
2023-05-21T08:16:01.511Z,99834.88
2023-05-21T08:18:32.623Z,99837.63
2023-05-21T08:21:04.024Z,99835.25
2023-05-21T08:23:34.882Z,99830.81
2023-05-21T08:26:05.414Z,99824.41
2023-05-21T08:28:37.157Z,99824.47
2023-05-21T08:31:07.783Z,99814.34
2023-05-21T08:33:40.434Z,99815.63
2023-05-21T08:36:10.995Z,99812.72
2023-05-21T08:38:48.888Z,99806.03
2023-05-21T08:41:27.990Z,99818.53
2023-05-21T08:43:59.509Z,99808.72
2023-05-21T08:46:35.988Z,99788.31
2023-05-21T08:49:06.771Z,99792.78
2023-05-21T08:51:37.652Z,99786.47
2023-05-21T08:54:08.606Z,99803.44
2023-05-21T08:56:42.325Z,99809.50
2023-05-21T08:59:13.368Z,99812.66
2023-05-21T09:01:45.207Z,99805.69
2023-05-21T09:04:27.743Z,99814.72
2023-05-21T09:06:59.445Z,99825.84
2023-05-21T09:09:59.400Z,99817.63
2023-05-21T09:12:30.823Z,99828.53
2023-05-21T09:15:03.904Z,99829.00
2023-05-21T09:17:38.450Z,99830.75
2023-05-21T09:20:31.619Z,99834.47
2023-05-21T09:23:13.867Z,99836.63
2023-05-21T09:25:47.092Z,99848.69
2023-05-21T09:28:24.792Z,99833.72
2023-05-21T09:30:55.891Z,99832.72
2023-05-21T09:33:33.734Z,99856.22
2023-05-21T09:36:04.764Z,99849.53
2023-05-21T09:38:36.738Z,99855.72
2023-05-21T09:41:08.158Z,99853.88
2023-05-21T09:43:39.309Z,99849.97
2023-05-21T09:46:10.057Z,99839.75
2023-05-21T09:48:48.184Z,99842.16
2023-05-21T09:51:22.849Z,99848.31
2023-05-21T09:53:56.872Z,99840.28
2023-05-21T09:56:30.454Z,99848.44
2023-05-21T09:59:19.116Z,99846.41
2023-05-21T10:01:52.500Z,99844.59
2023-05-21T10:04:25.260Z,99848.94
2023-05-21T10:06:55.982Z,99858.25
2023-05-21T10:09:26.710Z,99861.06
2023-05-21T10:11:58.787Z,99860.22
2023-05-21T10:14:33.452Z,99863.03
2023-05-21T10:17:04.332Z,99865.88
2023-05-21T10:19:37.952Z,99863.72
2023-05-21T10:22:09.641Z,99853.44
2023-05-21T10:24:42.463Z,99855.69
2023-05-21T10:27:33.162Z,99856.38
2023-05-21T10:30:05.093Z,99862.72
2023-05-21T10:32:35.930Z,99861.91
2023-05-21T10:35:07.180Z,99876.88
2023-05-21T10:37:38.170Z,99877.69
2023-05-21T10:40:09.400Z,99882.84
2023-05-21T10:43:21.143Z,99884.53
2023-05-21T10:46:01.867Z,99872.38
2023-05-21T10:49:00.518Z,99865.34
2023-05-21T10:51:36.665Z,99876.53
2023-05-21T10:54:57.566Z,99856.53
2023-05-21T10:58:08.919Z,99881.63
2023-05-21T11:00:39.715Z,99882.69
2023-05-21T11:03:12.924Z,99886.81
2023-05-21T11:05:54.164Z,99895.84
2023-05-21T11:08:29.601Z,99899.56
2023-05-21T11:11:00.837Z,99902.03
2023-05-21T11:13:50.272Z,99888.25
2023-05-21T11:16:23.629Z,99874.84
2023-05-21T11:18:56.469Z,99873.63
2023-05-21T11:21:32.059Z,99872.41
2023-05-21T11:24:05.046Z,99880.81
2023-05-21T11:26:51.631Z,99871.75
2023-05-21T11:29:22.617Z,99860.66
2023-05-21T11:32:07.253Z,99868.09
2023-05-21T11:34:44.123Z,99874.47
2023-05-21T11:37:20.739Z,99866.66
2023-05-21T11:39:53.325Z,99869.75
2023-05-21T11:42:43.720Z,99865.56
2023-05-21T11:45:19.168Z,99868.09
2023-05-21T11:47:51.495Z,99877.97
2023-05-21T11:50:22.398Z,99879.59
2023-05-21T11:52:53.525Z,99888.47
2023-05-21T11:55:27.545Z,99894.00
2023-05-21T11:58:17.975Z,99893.78
2023-05-21T12:00:48.451Z,99900.38
2023-05-21T12:03:19.606Z,99899.72
2023-05-21T12:05:50.997Z,99903.47
2023-05-21T12:08:28.754Z,99906.69
2023-05-21T12:11:03.376Z,99906.75
2023-05-21T12:13:34.194Z,99908.78
2023-05-21T12:16:06.793Z,99907.97
2023-05-21T12:18:39.315Z,99913.13
2023-05-21T12:21:11.776Z,99922.38
2023-05-21T12:23:43.463Z,99904.50
2023-05-21T12:26:34.641Z,99910.66
2023-05-21T12:29:07.803Z,99908.81
2023-05-21T12:31:52.548Z,99905.94
2023-05-21T12:34:48.216Z,99903.00
2023-05-21T12:37:24.425Z,99922.19
2023-05-21T12:39:57.254Z,99913.91
2023-05-21T12:42:29.357Z,99919.94
2023-05-21T12:45:00.480Z,99920.94
2023-05-21T12:47:32.551Z,99922.19
2023-05-21T12:50:04.918Z,99924.84
2023-05-21T12:52:35.602Z,99917.84
2023-05-21T12:55:09.370Z,99925.69
2023-05-21T12:57:40.922Z,99927.69
2023-05-21T13:00:12.707Z,99923.63
2023-05-21T13:02:47.827Z,99913.16
2023-05-21T13:05:21.543Z,99916.44
2023-05-21T13:07:53.189Z,99918.28
2023-05-21T13:10:23.683Z,99923.41
2023-05-21T13:13:12.250Z,99928.56
2023-05-21T13:15:42.999Z,99932.88
2023-05-21T13:18:31.519Z,99933.09
2023-05-21T13:21:02.255Z,99925.47
2023-05-21T13:23:33.103Z,99925.28
2023-05-21T13:26:03.599Z,99930.19
2023-05-21T13:28:34.082Z,99926.72
2023-05-21T13:31:04.565Z,99934.53
2023-05-21T13:33:35.269Z,99937.38
2023-05-21T13:36:06.218Z,99934.75
2023-05-21T13:38:36.675Z,99932.78
2023-05-21T13:41:07.100Z,99923.22
2023-05-21T13:43:37.680Z,99925.28
2023-05-21T13:46:08.531Z,99915.41
2023-05-21T13:48:38.983Z,99913.53
2023-05-21T13:51:09.363Z,99919.31
2023-05-21T13:53:40.632Z,99928.97
2023-05-21T13:56:11.064Z,99923.22
2023-05-21T13:58:42.175Z,99923.63
2023-05-21T14:01:13.513Z,99920.94
2023-05-21T14:03:44.512Z,99911.69
2023-05-21T14:06:15.180Z,99902.44
2023-05-21T14:08:45.683Z,99907.16
2023-05-21T14:11:16.035Z,99917.66
2023-05-21T14:13:46.570Z,99919.09
2023-05-21T14:16:17.117Z,99926.69
2023-05-21T14:18:47.757Z,99921.56
2023-05-21T14:21:18.264Z,99912.50
2023-05-21T14:23:49.682Z,99921.97
2023-05-21T14:26:42.081Z,99929.38
2023-05-21T14:29:12.674Z,99933.09
2023-05-21T14:31:43.216Z,99929.19
2023-05-21T14:34:13.709Z,99927.72
2023-05-21T14:36:44.156Z,99921.16
2023-05-21T14:39:14.638Z,99920.91
2023-05-21T14:41:45.162Z,99906.34
2023-05-21T14:44:15.634Z,99898.75
2023-05-21T14:46:46.070Z,99892.38
2023-05-21T14:49:16.762Z,99878.97
2023-05-21T14:51:49.069Z,99874.22
2023-05-21T14:54:19.607Z,99877.53
2023-05-21T14:56:50.237Z,99883.50
2023-05-21T14:59:20.763Z,99878.78
2023-05-21T15:01:51.396Z,99878.69
2023-05-21T15:04:21.927Z,99874.44
2023-05-21T15:06:52.824Z,99875.69
2023-05-21T15:09:23.517Z,99878.75
2023-05-21T15:11:55.095Z,99881.66
2023-05-21T15:14:25.829Z,99884.34
2023-05-21T15:16:56.350Z,99876.94
2023-05-21T15:19:27.512Z,99880.00
2023-05-21T15:21:58.143Z,99875.50
2023-05-21T15:24:28.802Z,99875.47
2023-05-21T15:26:59.274Z,99880.41
2023-05-21T15:29:29.886Z,99874.69
2023-05-21T15:32:01.415Z,99868.50
2023-05-21T15:34:31.889Z,99870.56
2023-05-21T15:37:02.731Z,99870.97
2023-05-21T15:39:33.335Z,99864.59
2023-05-21T15:42:03.773Z,99866.22
2023-05-21T15:44:34.259Z,99866.41
2023-05-21T15:47:04.792Z,99872.16
2023-05-21T15:49:35.855Z,99861.09
2023-05-21T15:52:24.701Z,99860.06
2023-05-21T15:54:55.381Z,99858.22
2023-05-21T15:57:25.869Z,99856.72
2023-05-21T15:59:57.113Z,99849.09
2023-05-21T16:02:27.559Z,99851.56
2023-05-21T16:04:58.058Z,99863.53
2023-05-21T16:07:28.537Z,99863.97
2023-05-21T16:09:59.079Z,99859.03
2023-05-21T16:12:29.547Z,99857.97
2023-05-21T16:14:59.965Z,99851.97
2023-05-21T16:17:30.614Z,99857.78
2023-05-21T16:20:01.375Z,99864.34
2023-05-21T16:22:31.999Z,99863.53
2023-05-21T16:25:02.474Z,99855.94
2023-05-21T16:27:32.957Z,99851.19
2023-05-21T16:30:03.556Z,99842.31
2023-05-21T16:32:34.656Z,99835.78
2023-05-21T16:35:05.328Z,99827.69
2023-05-21T16:37:36.001Z,99819.63
2023-05-21T16:40:06.737Z,99827.94
2023-05-21T16:42:37.048Z,99821.16
2023-05-21T16:45:08.138Z,99816.22
2023-05-21T16:47:38.801Z,99803.28
2023-05-21T16:50:09.964Z,99799.34
2023-05-21T16:52:40.346Z,99808.22
2023-05-21T16:55:11.418Z,99807.94
2023-05-21T16:57:42.463Z,99812.13
2023-05-21T17:00:13.530Z,99812.31
2023-05-21T17:02:44.177Z,99802.41
2023-05-21T17:05:14.652Z,99793.56
2023-05-21T17:07:45.388Z,99785.00
2023-05-21T17:10:15.848Z,99781.91
2023-05-21T17:12:46.543Z,99778.75
2023-05-21T17:15:17.226Z,99779.56
2023-05-21T17:17:47.899Z,99780.88
2023-05-21T17:20:18.451Z,99785.38
2023-05-21T17:22:48.961Z,99790.34
2023-05-21T17:25:19.295Z,99788.47
2023-05-21T17:27:49.900Z,99778.41
2023-05-21T17:30:20.455Z,99767.59
2023-05-21T17:32:50.898Z,99762.31
2023-05-21T17:35:21.488Z,99766.88
2023-05-21T17:37:51.875Z,99761.03
2023-05-21T17:40:25.328Z,99765.88
2023-05-21T17:42:55.971Z,99767.69
2023-05-21T17:45:26.396Z,99761.31
2023-05-21T17:48:00.164Z,99770.34
2023-05-21T17:50:31.157Z,99757.78
2023-05-21T17:53:01.717Z,99755.78
2023-05-21T17:55:32.173Z,99749.59
2023-05-21T17:58:02.666Z,99747.88
2023-05-21T18:00:33.836Z,99740.53
2023-05-21T18:03:04.374Z,99745.91
2023-05-21T18:05:53.074Z,99745.16
2023-05-21T18:08:23.599Z,99747.13
2023-05-21T18:10:54.085Z,99747.97
2023-05-21T18:13:24.551Z,99743.00
2023-05-21T18:15:54.918Z,99735.88
2023-05-21T18:18:26.252Z,99733.59
2023-05-21T18:20:56.626Z,99727.81
2023-05-21T18:23:28.806Z,99721.81
2023-05-21T18:25:59.623Z,99712.59
2023-05-21T18:28:33.323Z,99715.00
2023-05-21T18:31:05.759Z,99711.25
2023-05-21T18:33:36.249Z,99714.38
2023-05-21T18:36:07.031Z,99702.75
2023-05-21T18:38:37.466Z,99703.16
2023-05-21T18:41:09.254Z,99704.59
2023-05-21T18:43:39.597Z,99709.91
2023-05-21T18:46:10.319Z,99714.03
2023-05-21T18:48:40.740Z,99717.97
2023-05-21T18:51:11.359Z,99712.81
2023-05-21T18:53:42.134Z,99718.97
2023-05-21T18:56:12.660Z,99719.00
2023-05-21T18:58:43.151Z,99728.44
2023-05-21T19:01:13.587Z,99723.50
2023-05-21T19:03:44.093Z,99712.81
2023-05-21T19:06:14.457Z,99721.34
2023-05-21T19:08:47.665Z,99712.19
2023-05-21T19:11:19.070Z,99709.09
2023-05-21T19:13:49.939Z,99719.16
2023-05-21T19:16:20.403Z,99717.56
2023-05-21T19:18:50.920Z,99712.16
2023-05-21T19:21:21.746Z,99727.19
2023-05-21T19:23:53.784Z,99709.91
2023-05-21T19:26:24.918Z,99706.44
2023-05-21T19:28:56.004Z,99706.84
2023-05-21T19:31:27.015Z,99706.63
2023-05-21T19:33:57.605Z,99713.88
2023-05-21T19:36:30.802Z,99717.34
2023-05-21T19:39:10.468Z,99726.19
2023-05-21T19:41:40.954Z,99725.78
2023-05-21T19:44:11.379Z,99724.13
2023-05-21T19:46:42.164Z,99728.25
2023-05-21T19:49:12.628Z,99735.63
2023-05-21T19:51:43.139Z,99739.78
2023-05-21T19:54:13.862Z,99739.13
2023-05-21T19:56:44.282Z,99730.88
2023-05-21T19:59:14.934Z,99728.03
2023-05-21T20:01:45.731Z,99727.00
2023-05-21T20:04:16.644Z,99732.34
2023-05-21T20:06:47.404Z,99741.59
2023-05-21T20:09:19.538Z,99753.28
2023-05-21T20:11:50.154Z,99757.22
2023-05-21T20:14:20.584Z,99751.06
2023-05-21T20:16:51.083Z,99755.16
2023-05-21T20:19:23.836Z,99762.56
2023-05-21T20:21:54.656Z,99762.34
2023-05-21T20:24:25.429Z,99760.50
2023-05-21T20:26:56.507Z,99762.97
2023-05-21T20:29:27.166Z,99764.41
2023-05-21T20:31:57.794Z,99780.03
2023-05-21T20:34:31.269Z,99782.69
2023-05-21T20:37:01.787Z,99788.28
2023-05-21T20:39:50.277Z,99789.88
2023-05-21T20:42:21.426Z,99776.78
2023-05-21T20:44:52.000Z,99780.59
2023-05-21T20:47:22.702Z,99797.41
2023-05-21T20:49:55.168Z,99802.78
2023-05-21T20:52:26.150Z,99800.88
2023-05-21T20:54:56.842Z,99799.03
2023-05-21T20:57:30.315Z,99793.63
2023-05-21T21:00:00.721Z,99797.78
2023-05-21T21:02:31.063Z,99802.94
2023-05-21T21:05:01.494Z,99788.25
2023-05-21T21:07:34.970Z,99785.75
2023-05-21T21:10:06.708Z,99790.03
2023-05-21T21:12:37.145Z,99780.91
2023-05-21T21:15:08.117Z,99774.78
2023-05-21T21:17:38.801Z,99785.97
2023-05-21T21:20:10.831Z,99775.56
2023-05-21T21:22:41.439Z,99774.78
2023-05-21T21:25:12.258Z,99779.63
2023-05-21T21:27:43.990Z,99779.97
2023-05-21T21:30:14.742Z,99768.78
2023-05-21T21:32:45.337Z,99779.06
2023-05-21T21:35:15.957Z,99769.44
2023-05-21T21:37:46.416Z,99770.19
2023-05-21T21:40:16.891Z,99770.25
2023-05-21T21:42:47.878Z,99776.00
2023-05-21T21:45:18.417Z,99788.56
2023-05-21T21:47:48.877Z,99789.66
2023-05-21T21:50:19.449Z,99784.66
2023-05-21T21:52:50.454Z,99790.84
2023-05-21T21:55:20.941Z,99792.72
2023-05-21T21:57:52.735Z,99797.22
2023-05-21T22:00:27.897Z,99813.75
2023-05-21T22:02:58.507Z,99805.25
2023-05-21T22:05:32.857Z,99808.31
2023-05-21T22:08:04.678Z,99816.19
2023-05-21T22:10:39.668Z,99815.78
2023-05-21T22:13:10.591Z,99806.00
2023-05-21T22:15:41.289Z,99808.94
2023-05-21T22:18:13.690Z,99808.66
2023-05-21T22:20:45.307Z,99814.56
2023-05-21T22:23:15.883Z,99819.69
2023-05-21T22:25:46.835Z,99823.53
2023-05-21T22:28:17.736Z,99821.63
2023-05-21T22:30:48.287Z,99821.59
2023-05-21T22:33:18.820Z,99831.38
2023-05-21T22:35:49.322Z,99831.84
2023-05-21T22:38:20.141Z,99835.97
2023-05-21T22:40:50.727Z,99844.75
2023-05-21T22:43:21.465Z,99843.88
2023-05-21T22:45:52.097Z,99834.34
2023-05-21T22:48:23.795Z,99846.91
2023-05-21T22:50:54.881Z,99843.13
2023-05-21T22:53:26.199Z,99845.13
2023-05-21T22:55:56.534Z,99847.31
2023-05-21T22:58:27.217Z,99857.69
2023-05-21T23:00:57.620Z,99857.72
2023-05-21T23:03:28.429Z,99862.16
2023-05-21T23:05:58.879Z,99856.25
2023-05-21T23:08:29.328Z,99854.13
2023-05-21T23:11:00.030Z,99860.22
2023-05-21T23:13:30.594Z,99849.09
2023-05-21T23:16:01.127Z,99847.28
2023-05-21T23:18:31.714Z,99849.97
2023-05-21T23:21:03.308Z,99835.25
2023-05-21T23:23:34.061Z,99829.09
2023-05-21T23:26:04.488Z,99829.97
2023-05-21T23:28:35.269Z,99831.06
2023-05-21T23:31:06.421Z,99833.34
2023-05-21T23:33:37.246Z,99832.91
2023-05-21T23:36:07.985Z,99835.72
2023-05-21T23:38:38.484Z,99845.56
2023-05-21T23:41:09.525Z,99847.38
2023-05-21T23:43:40.178Z,99845.84
2023-05-21T23:46:29.233Z,99838.25
2023-05-21T23:48:59.662Z,99841.66
2023-05-21T23:51:30.480Z,99836.78
2023-05-21T23:54:01.391Z,99823.31
2023-05-21T23:56:32.708Z,99823.91
2023-05-21T23:59:03.270Z,99817.78
